Gil Vicente — CSKG — position and weather

sailwx.info

Track history (hours):
 
Tides and Currents Weather Stations Pressure Air Temp Water Temp Dewpoint Dewpoint Depression Visibility Wind Speed Wind Dir Waves Ship Positions

Gil Vicente

Last reported at 2017-Jan-19 21:06 UTC. Time now 2017-Jan-20 05:54 UTC.
Position N 38°39' W 009°05'.

Length 49 m.

Type: Passenger vessel. MMSI: 263701390.

Date/timePositionNaut miles runAvg speedWind from/ knotsBaromVisibWave heightAir tempDewpointWater temp
2017-Jan-19 21:06N 38°39' W 009°05'3 5.9
2017-Jan-19 20:34N 38°41' W 009°08'3 2.5
2017-Jan-19 19:33N 38°39' W 009°06'3 2.7
2017-Jan-19 18:33N 38°42' W 009°08'1 0.7
2017-Jan-19 17:33N 38°42' W 009°08'1 0.9
2017-Jan-19 16:33N 38°41' W 009°08'3 3.3
2017-Jan-19 15:33N 38°39' W 009°05'2 1.8
2017-Jan-19 14:34N 38°40' W 009°07'0 0.2
2017-Jan-19 13:33N 38°40' W 009°07'0 0.1
2017-Jan-19 12:33N 38°40' W 009°06'0 0.3
2017-Jan-19 11:33N 38°40' W 009°06'1 1.1
2017-Jan-19 10:33N 38°39' W 009°05'0 0.0
2017-Jan-19 09:33N 38°39' W 009°05'0 0.1
2017-Jan-19 08:33N 38°39' W 009°05'1 1.4
2017-Jan-19 07:33N 38°40' W 009°06'1 1.3
2017-Jan-19 06:33N 38°39' W 009°05'0 0.0
2017-Jan-18 21:33N 38°39' W 009°05'0 0.0
2017-Jan-18 20:33N 38°39' W 009°05'3 3.3
2017-Jan-18 19:33N 38°42' W 009°08'2 1.6
2017-Jan-18 18:33N 38°40' W 009°07'2 2.1
2017-Jan-18 17:33N 38°39' W 009°05'0 0.1
2017-Jan-18 16:33N 38°39' W 009°05'0 0.2
2017-Jan-18 15:33N 38°39' W 009°05'0 0.0
2017-Jan-18 11:20N 38°39' W 009°05'3 4.1
2017-Jan-18 10:33N 38°42' W 009°07'3 3.3
2017-Jan-18 09:33N 38°39' W 009°05'0 0.0
2017-Jan-18 08:33N 38°39' W 009°05'0 0.0
2017-Jan-18 07:33N 38°39' W 009°05'0 0.0
2017-Jan-18 06:33N 38°39' W 009°05'4 0.4
2017-Jan-17 20:33N 38°42' W 009°08'0 0.4
2017-Jan-17 19:33N 38°42' W 009°08'1 0.8
2017-Jan-17 18:33N 38°42' W 009°08'3 3.1
2017-Jan-17 17:33N 38°39' W 009°05'3 3.4
2017-Jan-17 16:33N 38°42' W 009°08'1 1.1
2017-Jan-17 15:33N 38°41' W 009°08'0 0.1
2017-Jan-17 14:33N 38°41' W 009°08'0 0.1
2017-Jan-17 13:33N 38°41' W 009°08'0 0.1
2017-Jan-17 12:33N 38°41' W 009°08'0 0.0
2017-Jan-17 11:33N 38°41' W 009°08'3 2.7
2017-Jan-17 10:32N 38°39' W 009°05'4 4.2
2017-Jan-17 09:33N 38°42' W 009°08'0 0.2
2017-Jan-17 08:33N 38°42' W 009°08'3 2.7
2017-Jan-17 07:33N 38°40' W 009°07'1 1.5
2017-Jan-17 06:33N 38°39' W 009°05'0 0.0
2017-Jan-16 20:28N 38°39' W 009°05'4 4.0
2017-Jan-16 19:33N 38°42' W 009°08'0 0.3
2017-Jan-16 18:33N 38°42' W 009°08'2 2.5
2017-Jan-16 17:33N 38°40' W 009°07'2 1.5
2017-Jan-16 16:33N 38°39' W 009°05'1 0.7
2017-Jan-16 15:33N 38°40' W 009°06'1 0.3
2017-Jan-16 11:26N 38°39' W 009°05'1 1.3
2017-Jan-16 10:33N 38°40' W 009°06'0 0.1
2017-Jan-16 09:33N 38°40' W 009°06'1 0.6
2017-Jan-16 08:33N 38°40' W 009°07'2 1.8
2017-Jan-16 07:33N 38°39' W 009°05'0 0.0
2017-Jan-16 06:33N 38°39' W 009°05'0 0.0
2017-Jan-16 05:33N 38°39' W 009°05'3 0.4
2017-Jan-15 21:33N 38°41' W 009°08'3 2.8
2017-Jan-15 20:33N 38°39' W 009°05'2 1.9
2017-Jan-15 19:33N 38°40' W 009°07'1 0.6
2017-Jan-15 18:33N 38°40' W 009°06'0 0.1
2017-Jan-15 17:33N 38°40' W 009°06'0 0.1
2017-Jan-15 16:33N 38°40' W 009°06'0 0.3
2017-Jan-15 15:33N 38°40' W 009°07'0 0.2
2017-Jan-15 14:33N 38°40' W 009°06'0 0.1
2017-Jan-15 13:33N 38°40' W 009°06'1 0.1
2017-Jan-14 21:34N 38°41' W 009°08'3 2.8
2017-Jan-14 20:33N 38°39' W 009°05'2 2.1
2017-Jan-14 19:34N 38°40' W 009°07'1 0.7
2017-Jan-14 18:34N 38°40' W 009°06'0 0.0
2017-Jan-14 17:34N 38°40' W 009°06'0 0.2
2017-Jan-14 16:33N 38°40' W 009°07'0 0.4
2017-Jan-14 15:34N 38°40' W 009°06'0 0.1
2017-Jan-14 14:34N 38°40' W 009°06'0 0.1
2017-Jan-14 13:33N 38°40' W 009°06'1 1.0
2017-Jan-14 12:34N 38°39' W 009°05'0 0.0
2017-Jan-14 11:34N 38°39' W 009°05'3 2.9
2017-Jan-14 10:34N 38°41' W 009°08'0 0.1
2017-Jan-14 09:34N 38°41' W 009°08'0 0.1
2017-Jan-14 08:34N 38°41' W 009°08'3 2.5
2017-Jan-14 07:32N 38°39' W 009°05'1 0.7
2017-Jan-14 06:33N 38°39' W 009°06'1 0.9
2017-Jan-14 05:33N 38°39' W 009°05'4 0.7
2017-Jan-13 23:33N 38°42' W 009°08'1 1.4
2017-Jan-13 22:33N 38°41' W 009°08'0 0.3
2017-Jan-13 21:33N 38°41' W 009°08'3 3.0
2017-Jan-13 20:33N 38°39' W 009°05'0 0.4
2017-Jan-13 19:33N 38°39' W 009°05'0 0.4
2017-Jan-13 18:33N 38°39' W 009°05'1 1.5
2017-Jan-13 17:33N 38°40' W 009°06'1 1.4
2017-Jan-13 16:33N 38°39' W 009°05'0 0.0
2017-Jan-13 10:16N 38°39' W 009°05'1 1.3
2017-Jan-13 09:33N 38°39' W 009°06'3 2.9
2017-Jan-13 08:33N 38°42' W 009°08'0 0.4
2017-Jan-13 07:33N 38°42' W 009°08'0 0.0
2017-Jan-12 20:33N 38°42' W 009°08'0 0.2
2017-Jan-12 19:33N 38°42' W 009°08'1 0.8
2017-Jan-12 18:33N 38°42' W 009°08'3 3.1
2017-Jan-12 17:33N 38°39' W 009°05'4 3.6
2017-Jan-12 16:33N 38°42' W 009°08'1 1.1
2017-Jan-12 15:33N 38°41' W 009°08'0 0.4
2017-Jan-12 14:33N 38°41' W 009°08'0 0.1
2017-Jan-12 13:33N 38°41' W 009°08'0 0.0
2017-Jan-12 12:33N 38°41' W 009°08'0 0.1
2017-Jan-12 11:33N 38°41' W 009°08'3 2.9
2017-Jan-12 10:33N 38°39' W 009°05'1 0.9
2017-Jan-12 09:32N 38°39' W 009°06'0 0.3
2017-Jan-12 08:33N 38°39' W 009°06'0 0.1
2017-Jan-12 07:33N 38°39' W 009°06'1 0.6
2017-Jan-12 06:33N 38°39' W 009°05'0 0.0
2017-Jan-11 21:30N 38°39' W 009°05'0 0.0
2017-Jan-11 20:33N 38°39' W 009°05'4 3.6
2017-Jan-11 19:33N 38°42' W 009°08'0 0.4
2017-Jan-11 18:33N 38°42' W 009°08'3 2.5
2017-Jan-11 17:33N 38°40' W 009°07'2 1.7
2017-Jan-11 16:33N 38°39' W 009°05'1 0.9
2017-Jan-11 15:33N 38°40' W 009°06'1 0.3
2017-Jan-11 11:31N 38°39' W 009°05'1 1.1
2017-Jan-11 10:33N 38°40' W 009°06'0 0.3
2017-Jan-11 09:33N 38°40' W 009°06'0 0.3
2017-Jan-11 08:33N 38°40' W 009°07'2 1.6
2017-Jan-11 07:33N 38°39' W 009°05'0 0.0
2017-Jan-11 06:33N 38°39' W 009°05'4 0.5
2017-Jan-10 23:33N 38°42' W 009°08'1 1.3
2017-Jan-10 22:34N 38°41' W 009°08'0 0.4
2017-Jan-10 21:34N 38°41' W 009°07'3 2.9
2017-Jan-10 20:34N 38°39' W 009°05'0 0.2
2017-Jan-10 19:32N 38°39' W 009°05'0 0.2
2017-Jan-10 18:34N 38°39' W 009°05'2 1.5
2017-Jan-10 17:33N 38°40' W 009°07'1 1.4
2017-Jan-10 16:33N 38°39' W 009°05'0 0.0
2017-Jan-10 09:34N 38°39' W 009°05'0 0.1
2017-Jan-10 08:34N 38°39' W 009°05'0 0.1
2017-Jan-10 07:33N 38°39' W 009°05'0 0.1
2017-Jan-10 06:33N 38°39' W 009°05'0 0.0
2017-Jan-09 21:31N 38°39' W 009°05'  
Track history (hours):
 
Tides and Currents Weather Stations Pressure Air Temp Water Temp Dewpoint Dewpoint Depression Visibility Wind Speed Wind Dir Waves Ship Positions

Gil Vicente

Last reported at 2017-Jan-19 21:06 UTC. Time now 2017-Jan-20 05:54 UTC.
Position N 38°39' W 009°05'.

Length 49 m.

Type: Passenger vessel. MMSI: 263701390.

Date/timePositionNaut miles runAvg speedWind from/ knotsBaromVisibWave heightAir tempDewpointWater temp
2017-Jan-19 21:06N 38°39' W 009°05'3 5.9
2017-Jan-19 20:34N 38°41' W 009°08'3 2.5
2017-Jan-19 19:33N 38°39' W 009°06'3 2.7
2017-Jan-19 18:33N 38°42' W 009°08'1 0.7
2017-Jan-19 17:33N 38°42' W 009°08'1 0.9
2017-Jan-19 16:33N 38°41' W 009°08'3 3.3
2017-Jan-19 15:33N 38°39' W 009°05'2 1.8
2017-Jan-19 14:34N 38°40' W 009°07'0 0.2
2017-Jan-19 13:33N 38°40' W 009°07'0 0.1
2017-Jan-19 12:33N 38°40' W 009°06'0 0.3
2017-Jan-19 11:33N 38°40' W 009°06'1 1.1
2017-Jan-19 10:33N 38°39' W 009°05'0 0.0
2017-Jan-19 09:33N 38°39' W 009°05'0 0.1
2017-Jan-19 08:33N 38°39' W 009°05'1 1.4
2017-Jan-19 07:33N 38°40' W 009°06'1 1.3
2017-Jan-19 06:33N 38°39' W 009°05'0 0.0
2017-Jan-18 21:33N 38°39' W 009°05'0 0.0
2017-Jan-18 20:33N 38°39' W 009°05'3 3.3
2017-Jan-18 19:33N 38°42' W 009°08'2 1.6
2017-Jan-18 18:33N 38°40' W 009°07'2 2.1
2017-Jan-18 17:33N 38°39' W 009°05'0 0.1
2017-Jan-18 16:33N 38°39' W 009°05'0 0.2
2017-Jan-18 15:33N 38°39' W 009°05'0 0.0
2017-Jan-18 11:20N 38°39' W 009°05'3 4.1
2017-Jan-18 10:33N 38°42' W 009°07'3 3.3
2017-Jan-18 09:33N 38°39' W 009°05'0 0.0
2017-Jan-18 08:33N 38°39' W 009°05'0 0.0
2017-Jan-18 07:33N 38°39' W 009°05'0 0.0
2017-Jan-18 06:33N 38°39' W 009°05'4 0.4
2017-Jan-17 20:33N 38°42' W 009°08'0 0.4
2017-Jan-17 19:33N 38°42' W 009°08'1 0.8
2017-Jan-17 18:33N 38°42' W 009°08'3 3.1
2017-Jan-17 17:33N 38°39' W 009°05'3 3.4
2017-Jan-17 16:33N 38°42' W 009°08'1 1.1
2017-Jan-17 15:33N 38°41' W 009°08'0 0.1
2017-Jan-17 14:33N 38°41' W 009°08'0 0.1
2017-Jan-17 13:33N 38°41' W 009°08'0 0.1
2017-Jan-17 12:33N 38°41' W 009°08'0 0.0
2017-Jan-17 11:33N 38°41' W 009°08'3 2.7
2017-Jan-17 10:32N 38°39' W 009°05'4 4.2
2017-Jan-17 09:33N 38°42' W 009°08'0 0.2
2017-Jan-17 08:33N 38°42' W 009°08'3 2.7
2017-Jan-17 07:33N 38°40' W 009°07'1 1.5
2017-Jan-17 06:33N 38°39' W 009°05'0 0.0
2017-Jan-16 20:28N 38°39' W 009°05'4 4.0
2017-Jan-16 19:33N 38°42' W 009°08'0 0.3
2017-Jan-16 18:33N 38°42' W 009°08'2 2.5
2017-Jan-16 17:33N 38°40' W 009°07'2 1.5
2017-Jan-16 16:33N 38°39' W 009°05'1 0.7
2017-Jan-16 15:33N 38°40' W 009°06'1 0.3
2017-Jan-16 11:26N 38°39' W 009°05'1 1.3
2017-Jan-16 10:33N 38°40' W 009°06'0 0.1
2017-Jan-16 09:33N 38°40' W 009°06'1 0.6
2017-Jan-16 08:33N 38°40' W 009°07'2 1.8
2017-Jan-16 07:33N 38°39' W 009°05'0 0.0
2017-Jan-16 06:33N 38°39' W 009°05'0 0.0
2017-Jan-16 05:33N 38°39' W 009°05'3 0.4
2017-Jan-15 21:33N 38°41' W 009°08'3 2.8
2017-Jan-15 20:33N 38°39' W 009°05'2 1.9
2017-Jan-15 19:33N 38°40' W 009°07'1 0.6
2017-Jan-15 18:33N 38°40' W 009°06'0 0.1
2017-Jan-15 17:33N 38°40' W 009°06'0 0.1
2017-Jan-15 16:33N 38°40' W 009°06'0 0.3
2017-Jan-15 15:33N 38°40' W 009°07'0 0.2
2017-Jan-15 14:33N 38°40' W 009°06'0 0.1
2017-Jan-15 13:33N 38°40' W 009°06'1 0.1
2017-Jan-14 21:34N 38°41' W 009°08'3 2.8
2017-Jan-14 20:33N 38°39' W 009°05'2 2.1
2017-Jan-14 19:34N 38°40' W 009°07'1 0.7
2017-Jan-14 18:34N 38°40' W 009°06'0 0.0
2017-Jan-14 17:34N 38°40' W 009°06'0 0.2
2017-Jan-14 16:33N 38°40' W 009°07'0 0.4
2017-Jan-14 15:34N 38°40' W 009°06'0 0.1
2017-Jan-14 14:34N 38°40' W 009°06'0 0.1
2017-Jan-14 13:33N 38°40' W 009°06'1 1.0
2017-Jan-14 12:34N 38°39' W 009°05'0 0.0
2017-Jan-14 11:34N 38°39' W 009°05'3 2.9
2017-Jan-14 10:34N 38°41' W 009°08'0 0.1
2017-Jan-14 09:34N 38°41' W 009°08'0 0.1
2017-Jan-14 08:34N 38°41' W 009°08'3 2.5
2017-Jan-14 07:32N 38°39' W 009°05'1 0.7
2017-Jan-14 06:33N 38°39' W 009°06'1 0.9
2017-Jan-14 05:33N 38°39' W 009°05'4 0.7
2017-Jan-13 23:33N 38°42' W 009°08'1 1.4
2017-Jan-13 22:33N 38°41' W 009°08'0 0.3
2017-Jan-13 21:33N 38°41' W 009°08'3 3.0
2017-Jan-13 20:33N 38°39' W 009°05'0 0.4
2017-Jan-13 19:33N 38°39' W 009°05'0 0.4
2017-Jan-13 18:33N 38°39' W 009°05'1 1.5
2017-Jan-13 17:33N 38°40' W 009°06'1 1.4
2017-Jan-13 16:33N 38°39' W 009°05'0 0.0
2017-Jan-13 10:16N 38°39' W 009°05'1 1.3
2017-Jan-13 09:33N 38°39' W 009°06'3 2.9
2017-Jan-13 08:33N 38°42' W 009°08'0 0.4
2017-Jan-13 07:33N 38°42' W 009°08'0 0.0
2017-Jan-12 20:33N 38°42' W 009°08'0 0.2
2017-Jan-12 19:33N 38°42' W 009°08'1 0.8
2017-Jan-12 18:33N 38°42' W 009°08'3 3.1
2017-Jan-12 17:33N 38°39' W 009°05'4 3.6
2017-Jan-12 16:33N 38°42' W 009°08'1 1.1
2017-Jan-12 15:33N 38°41' W 009°08'0 0.4
2017-Jan-12 14:33N 38°41' W 009°08'0 0.1
2017-Jan-12 13:33N 38°41' W 009°08'0 0.0
2017-Jan-12 12:33N 38°41' W 009°08'0 0.1
2017-Jan-12 11:33N 38°41' W 009°08'3 2.9
2017-Jan-12 10:33N 38°39' W 009°05'1 0.9
2017-Jan-12 09:32N 38°39' W 009°06'0 0.3
2017-Jan-12 08:33N 38°39' W 009°06'0 0.1
2017-Jan-12 07:33N 38°39' W 009°06'1 0.6
2017-Jan-12 06:33N 38°39' W 009°05'0 0.0
2017-Jan-11 21:30N 38°39' W 009°05'0 0.0
2017-Jan-11 20:33N 38°39' W 009°05'4 3.6
2017-Jan-11 19:33N 38°42' W 009°08'0 0.4
2017-Jan-11 18:33N 38°42' W 009°08'3 2.5
2017-Jan-11 17:33N 38°40' W 009°07'2 1.7
2017-Jan-11 16:33N 38°39' W 009°05'1 0.9
2017-Jan-11 15:33N 38°40' W 009°06'1 0.3
2017-Jan-11 11:31N 38°39' W 009°05'1 1.1
2017-Jan-11 10:33N 38°40' W 009°06'0 0.3
2017-Jan-11 09:33N 38°40' W 009°06'0 0.3
2017-Jan-11 08:33N 38°40' W 009°07'2 1.6
2017-Jan-11 07:33N 38°39' W 009°05'0 0.0
2017-Jan-11 06:33N 38°39' W 009°05'4 0.5
2017-Jan-10 23:33N 38°42' W 009°08'1 1.3
2017-Jan-10 22:34N 38°41' W 009°08'0 0.4
2017-Jan-10 21:34N 38°41' W 009°07'3 2.9
2017-Jan-10 20:34N 38°39' W 009°05'0 0.2
2017-Jan-10 19:32N 38°39' W 009°05'0 0.2
2017-Jan-10 18:34N 38°39' W 009°05'2 1.5
2017-Jan-10 17:33N 38°40' W 009°07'1 1.4
2017-Jan-10 16:33N 38°39' W 009°05'0 0.0
2017-Jan-10 09:34N 38°39' W 009°05'0 0.1
2017-Jan-10 08:34N 38°39' W 009°05'0 0.1
2017-Jan-10 07:33N 38°39' W 009°05'0 0.1
2017-Jan-10 06:33N 38°39' W 009°05'0 0.0
2017-Jan-09 21:31N 38°39' W 009°05'  

Dump ship's entire track history